sensor_id;sensor_type;location;lat;lon;timestamp;P1;durP1;ratioP1;P2;durP2;ratioP2
41721;SDS011;27407;24.142;-110.310;2024-02-26T00:02:09;3.60;;;0.80;;
41721;SDS011;27407;24.142;-110.310;2024-02-26T00:04:35;5.30;;;1.20;;
41721;SDS011;27407;24.142;-110.310;2024-02-26T00:07:02;9.98;;;1.35;;
41721;SDS011;27407;24.142;-110.310;2024-02-26T00:09:29;8.73;;;0.95;;
41721;SDS011;27407;24.142;-110.310;2024-02-26T00:11:55;3.60;;;1.25;;
41721;SDS011;27407;24.142;-110.310;2024-02-26T00:14:23;6.10;;;1.20;;
41721;SDS011;27407;24.142;-110.310;2024-02-26T00:16:49;7.13;;;1.58;;
41721;SDS011;27407;24.142;-110.310;2024-02-26T00:19:16;3.05;;;0.85;;
41721;SDS011;27407;24.142;-110.310;2024-02-26T00:21:43;40.60;;;3.33;;
41721;SDS011;27407;24.142;-110.310;2024-02-26T00:24:09;12.82;;;1.50;;
41721;SDS011;27407;24.142;-110.310;2024-02-26T00:26:36;14.95;;;1.80;;
41721;SDS011;27407;24.142;-110.310;2024-02-26T00:29:02;12.63;;;1.70;;
41721;SDS011;27407;24.142;-110.310;2024-02-26T00:31:29;17.20;;;2.00;;
41721;SDS011;27407;24.142;-110.310;2024-02-26T00:33:55;14.15;;;2.05;;
41721;SDS011;27407;24.142;-110.310;2024-02-26T00:36:22;12.70;;;1.70;;
41721;SDS011;27407;24.142;-110.310;2024-02-26T00:38:49;15.93;;;2.00;;
41721;SDS011;27407;24.142;-110.310;2024-02-26T00:41:18;11.60;;;2.03;;
41721;SDS011;27407;24.142;-110.310;2024-02-26T00:43:48;18.27;;;2.33;;
41721;SDS011;27407;24.142;-110.310;2024-02-26T00:46:15;11.85;;;2.45;;
41721;SDS011;27407;24.142;-110.310;2024-02-26T00:48:42;18.55;;;5.18;;
41721;SDS011;27407;24.142;-110.310;2024-02-26T00:51:08;22.45;;;4.50;;
41721;SDS011;27407;24.142;-110.310;2024-02-26T00:53:35;22.98;;;4.55;;
41721;SDS011;27407;24.142;-110.310;2024-02-26T00:56:01;13.73;;;3.88;;
41721;SDS011;27407;24.142;-110.310;2024-02-26T00:58:28;20.83;;;3.42;;
41721;SDS011;27407;24.142;-110.310;2024-02-26T01:00:55;11.68;;;2.45;;
41721;SDS011;27407;24.142;-110.310;2024-02-26T01:03:21;16.58;;;2.50;;
41721;SDS011;27407;24.142;-110.310;2024-02-26T01:05:48;14.80;;;2.95;;
41721;SDS011;27407;24.142;-110.310;2024-02-26T01:08:15;15.00;;;2.58;;
41721;SDS011;27407;24.142;-110.310;2024-02-26T01:10:41;14.15;;;3.15;;
41721;SDS011;27407;24.142;-110.310;2024-02-26T01:13:08;14.88;;;3.17;;
41721;SDS011;27407;24.142;-110.310;2024-02-26T01:15:34;15.70;;;3.50;;
41721;SDS011;27407;24.142;-110.310;2024-02-26T01:18:01;13.23;;;3.53;;
41721;SDS011;27407;24.142;-110.310;2024-02-26T01:20:28;24.30;;;3.80;;
41721;SDS011;27407;24.142;-110.310;2024-02-26T01:22:54;37.97;;;3.83;;
41721;SDS011;27407;24.142;-110.310;2024-02-26T01:25:21;58.55;;;6.40;;
41721;SDS011;27407;24.142;-110.310;2024-02-26T01:27:47;64.80;;;7.85;;
41721;SDS011;27407;24.142;-110.310;2024-02-26T01:30:14;36.13;;;4.82;;
41721;SDS011;27407;24.142;-110.310;2024-02-26T01:32:42;50.05;;;5.03;;
41721;SDS011;27407;24.142;-110.310;2024-02-26T01:35:08;34.38;;;3.38;;
41721;SDS011;27407;24.142;-110.310;2024-02-26T01:37:37;31.38;;;3.42;;
41721;SDS011;27407;24.142;-110.310;2024-02-26T01:40:04;41.10;;;2.95;;
41721;SDS011;27407;24.142;-110.310;2024-02-26T01:42:32;21.13;;;2.55;;
41721;SDS011;27407;24.142;-110.310;2024-02-26T01:44:59;90.28;;;7.60;;
41721;SDS011;27407;24.142;-110.310;2024-02-26T01:47:26;15.82;;;2.33;;
41721;SDS011;27407;24.142;-110.310;2024-02-26T01:49:53;49.92;;;3.50;;
41721;SDS011;27407;24.142;-110.310;2024-02-26T01:52:20;15.93;;;3.30;;
41721;SDS011;27407;24.142;-110.310;2024-02-26T01:54:47;64.13;;;8.73;;
41721;SDS011;27407;24.142;-110.310;2024-02-26T01:57:14;16.80;;;5.35;;
41721;SDS011;27407;24.142;-110.310;2024-02-26T01:59:41;12.05;;;3.95;;
41721;SDS011;27407;24.142;-110.310;2024-02-26T02:02:08;19.10;;;3.05;;
41721;SDS011;27407;24.142;-110.310;2024-02-26T02:04:37;13.32;;;2.10;;
41721;SDS011;27407;24.142;-110.310;2024-02-26T02:07:04;18.60;;;3.50;;
41721;SDS011;27407;24.142;-110.310;2024-02-26T02:09:31;17.00;;;1.35;;
41721;SDS011;27407;24.142;-110.310;2024-02-26T02:12:04;20.45;;;3.08;;
41721;SDS011;27407;24.142;-110.310;2024-02-26T02:14:32;26.35;;;4.72;;
41721;SDS011;27407;24.142;-110.310;2024-02-26T02:16:58;19.10;;;3.17;;
41721;SDS011;27407;24.142;-110.310;2024-02-26T02:19:25;14.88;;;2.50;;
41721;SDS011;27407;24.142;-110.310;2024-02-26T02:21:51;11.38;;;1.75;;
41721;SDS011;27407;24.142;-110.310;2024-02-26T02:24:18;34.58;;;3.30;;
41721;SDS011;27407;24.142;-110.310;2024-02-26T02:26:45;30.73;;;3.05;;
41721;SDS011;27407;24.142;-110.310;2024-02-26T02:29:12;34.22;;;3.42;;
41721;SDS011;27407;24.142;-110.310;2024-02-26T02:31:41;21.63;;;3.90;;
41721;SDS011;27407;24.142;-110.310;2024-02-26T02:34:09;36.17;;;3.50;;
41721;SDS011;27407;24.142;-110.310;2024-02-26T02:36:47;18.20;;;2.17;;
41721;SDS011;27407;24.142;-110.310;2024-02-26T02:39:17;34.55;;;3.88;;
41721;SDS011;27407;24.142;-110.310;2024-02-26T02:41:44;79.85;;;7.38;;
41721;SDS011;27407;24.142;-110.310;2024-02-26T02:44:11;58.95;;;5.07;;
41721;SDS011;27407;24.142;-110.310;2024-02-26T02:46:41;34.70;;;2.92;;
41721;SDS011;27407;24.142;-110.310;2024-02-26T02:49:10;25.73;;;2.53;;
41721;SDS011;27407;24.142;-110.310;2024-02-26T02:51:37;23.55;;;2.28;;
41721;SDS011;27407;24.142;-110.310;2024-02-26T02:54:04;14.38;;;2.20;;
41721;SDS011;27407;24.142;-110.310;2024-02-26T02:56:30;19.92;;;2.38;;
41721;SDS011;27407;24.142;-110.310;2024-02-26T02:58:57;14.35;;;2.38;;
41721;SDS011;27407;24.142;-110.310;2024-02-26T03:01:23;16.73;;;3.15;;
41721;SDS011;27407;24.142;-110.310;2024-02-26T03:03:50;42.33;;;4.78;;
41721;SDS011;27407;24.142;-110.310;2024-02-26T03:06:17;29.20;;;3.45;;
41721;SDS011;27407;24.142;-110.310;2024-02-26T03:08:43;32.45;;;3.25;;
41721;SDS011;27407;24.142;-110.310;2024-02-26T03:11:14;33.63;;;4.00;;
41721;SDS011;27407;24.142;-110.310;2024-02-26T03:13:41;21.67;;;2.75;;
41721;SDS011;27407;24.142;-110.310;2024-02-26T03:16:07;35.95;;;2.97;;
41721;SDS011;27407;24.142;-110.310;2024-02-26T03:18:34;23.85;;;3.35;;
41721;SDS011;27407;24.142;-110.310;2024-02-26T03:21:01;23.90;;;3.22;;
41721;SDS011;27407;24.142;-110.310;2024-02-26T03:23:27;12.57;;;2.50;;
41721;SDS011;27407;24.142;-110.310;2024-02-26T03:25:56;31.65;;;3.22;;
41721;SDS011;27407;24.142;-110.310;2024-02-26T03:28:22;23.77;;;2.60;;
41721;SDS011;27407;24.142;-110.310;2024-02-26T03:30:49;18.90;;;2.33;;
41721;SDS011;27407;24.142;-110.310;2024-02-26T03:33:15;5.43;;;1.33;;
41721;SDS011;27407;24.142;-110.310;2024-02-26T03:35:42;19.45;;;1.60;;
41721;SDS011;27407;24.142;-110.310;2024-02-26T03:38:09;19.20;;;2.42;;
41721;SDS011;27407;24.142;-110.310;2024-02-26T03:40:35;13.50;;;1.90;;
41721;SDS011;27407;24.142;-110.310;2024-02-26T03:43:02;14.48;;;1.90;;
41721;SDS011;27407;24.142;-110.310;2024-02-26T03:45:30;18.85;;;2.00;;
41721;SDS011;27407;24.142;-110.310;2024-02-26T03:47:56;24.58;;;2.95;;
41721;SDS011;27407;24.142;-110.310;2024-02-26T03:50:23;23.17;;;2.60;;
41721;SDS011;27407;24.142;-110.310;2024-02-26T03:52:49;18.57;;;2.50;;
41721;SDS011;27407;24.142;-110.310;2024-02-26T03:55:16;25.37;;;2.33;;
41721;SDS011;27407;24.142;-110.310;2024-02-26T03:57:46;14.73;;;2.17;;
41721;SDS011;27407;24.142;-110.310;2024-02-26T04:00:13;17.93;;;1.93;;
41721;SDS011;27407;24.142;-110.310;2024-02-26T04:02:39;21.27;;;2.67;;
41721;SDS011;27407;24.142;-110.310;2024-02-26T04:05:09;36.40;;;2.30;;
41721;SDS011;27407;24.142;-110.310;2024-02-26T04:07:36;19.87;;;2.07;;
41721;SDS011;27407;24.142;-110.310;2024-02-26T04:10:03;38.43;;;3.03;;
41721;SDS011;27407;24.142;-110.310;2024-02-26T04:12:40;23.13;;;2.37;;
41721;SDS011;27407;24.142;-110.310;2024-02-26T04:15:08;11.13;;;1.63;;
41721;SDS011;27407;24.142;-110.310;2024-02-26T04:17:35;22.42;;;2.28;;
41721;SDS011;27407;24.142;-110.310;2024-02-26T04:20:03;32.73;;;2.70;;
41721;SDS011;27407;24.142;-110.310;2024-02-26T04:22:33;18.58;;;1.55;;
41721;SDS011;27407;24.142;-110.310;2024-02-26T04:24:59;27.23;;;2.27;;
41721;SDS011;27407;24.142;-110.310;2024-02-26T04:27:26;20.23;;;1.80;;
41721;SDS011;27407;24.142;-110.310;2024-02-26T04:29:53;13.67;;;1.80;;
41721;SDS011;27407;24.142;-110.310;2024-02-26T04:32:19;12.90;;;1.97;;
41721;SDS011;27407;24.142;-110.310;2024-02-26T04:34:46;8.57;;;1.93;;
41721;SDS011;27407;24.142;-110.310;2024-02-26T04:37:12;21.80;;;2.30;;
41721;SDS011;27407;24.142;-110.310;2024-02-26T04:39:39;18.00;;;3.23;;
41721;SDS011;27407;24.142;-110.310;2024-02-26T04:42:05;24.47;;;1.80;;
41721;SDS011;27407;24.142;-110.310;2024-02-26T04:44:32;17.70;;;1.50;;
41721;SDS011;27407;24.142;-110.310;2024-02-26T04:46:59;29.40;;;2.10;;
41721;SDS011;27407;24.142;-110.310;2024-02-26T04:49:27;20.67;;;2.33;;
41721;SDS011;27407;24.142;-110.310;2024-02-26T04:51:53;11.17;;;1.33;;
41721;SDS011;27407;24.142;-110.310;2024-02-26T04:54:20;9.33;;;1.43;;
41721;SDS011;27407;24.142;-110.310;2024-02-26T04:56:47;19.47;;;1.90;;
41721;SDS011;27407;24.142;-110.310;2024-02-26T04:59:14;24.00;;;1.83;;
41721;SDS011;27407;24.142;-110.310;2024-02-26T05:01:40;7.60;;;1.40;;
41721;SDS011;27407;24.142;-110.310;2024-02-26T05:04:07;25.43;;;2.07;;
41721;SDS011;27407;24.142;-110.310;2024-02-26T05:06:34;13.93;;;1.90;;
41721;SDS011;27407;24.142;-110.310;2024-02-26T05:09:03;10.87;;;1.87;;
41721;SDS011;27407;24.142;-110.310;2024-02-26T05:11:30;8.33;;;1.27;;
41721;SDS011;27407;24.142;-110.310;2024-02-26T05:13:56;9.43;;;1.53;;
41721;SDS011;27407;24.142;-110.310;2024-02-26T05:16:23;15.27;;;1.33;;
41721;SDS011;27407;24.142;-110.310;2024-02-26T05:18:52;30.50;;;2.73;;
41721;SDS011;27407;24.142;-110.310;2024-02-26T05:21:19;9.07;;;1.20;;
41721;SDS011;27407;24.142;-110.310;2024-02-26T05:23:45;10.13;;;1.70;;
41721;SDS011;27407;24.142;-110.310;2024-02-26T05:29:11;5.03;;;1.30;;
41721;SDS011;27407;24.142;-110.310;2024-02-26T05:31:46;19.47;;;1.60;;
41721;SDS011;27407;24.142;-110.310;2024-02-26T05:34:18;17.57;;;1.37;;
41721;SDS011;27407;24.142;-110.310;2024-02-26T05:36:48;11.63;;;1.10;;
41721;SDS011;27407;24.142;-110.310;2024-02-26T05:39:17;12.20;;;1.77;;
41721;SDS011;27407;24.142;-110.310;2024-02-26T05:41:50;5.83;;;1.00;;
41721;SDS011;27407;24.142;-110.310;2024-02-26T05:44:20;3.17;;;0.77;;
41721;SDS011;27407;24.142;-110.310;2024-02-26T05:46:50;6.10;;;0.80;;
41721;SDS011;27407;24.142;-110.310;2024-02-26T05:49:17;6.03;;;0.90;;
41721;SDS011;27407;24.142;-110.310;2024-02-26T05:51:43;6.13;;;0.90;;
41721;SDS011;27407;24.142;-110.310;2024-02-26T05:54:12;4.20;;;0.80;;
41721;SDS011;27407;24.142;-110.310;2024-02-26T05:56:42;3.03;;;1.00;;
41721;SDS011;27407;24.142;-110.310;2024-02-26T05:59:09;9.53;;;1.07;;
41721;SDS011;27407;24.142;-110.310;2024-02-26T06:01:35;10.50;;;1.27;;
41721;SDS011;27407;24.142;-110.310;2024-02-26T06:04:02;12.43;;;0.83;;
41721;SDS011;27407;24.142;-110.310;2024-02-26T06:06:29;7.63;;;1.00;;
41721;SDS011;27407;24.142;-110.310;2024-02-26T06:08:55;4.97;;;0.70;;
41721;SDS011;27407;24.142;-110.310;2024-02-26T06:11:25;12.47;;;1.30;;
41721;SDS011;27407;24.142;-110.310;2024-02-26T06:13:52;8.23;;;1.10;;
41721;SDS011;27407;24.142;-110.310;2024-02-26T06:16:19;5.27;;;1.10;;
41721;SDS011;27407;24.142;-110.310;2024-02-26T06:18:45;8.97;;;1.70;;
41721;SDS011;27407;24.142;-110.310;2024-02-26T06:21:12;7.97;;;1.57;;
41721;SDS011;27407;24.142;-110.310;2024-02-26T06:23:39;6.70;;;1.47;;
41721;SDS011;27407;24.142;-110.310;2024-02-26T06:26:06;5.93;;;0.93;;
41721;SDS011;27407;24.142;-110.310;2024-02-26T06:28:32;8.10;;;1.13;;
41721;SDS011;27407;24.142;-110.310;2024-02-26T06:31:01;6.40;;;1.00;;
41721;SDS011;27407;24.142;-110.310;2024-02-26T06:33:34;5.03;;;0.90;;
41721;SDS011;27407;24.142;-110.310;2024-02-26T06:36:00;3.63;;;0.70;;
41721;SDS011;27407;24.142;-110.310;2024-02-26T06:38:27;5.07;;;0.90;;
41721;SDS011;27407;24.142;-110.310;2024-02-26T06:40:53;2.87;;;0.63;;
41721;SDS011;27407;24.142;-110.310;2024-02-26T06:43:20;2.23;;;0.63;;
41721;SDS011;27407;24.142;-110.310;2024-02-26T06:45:46;3.43;;;1.00;;
41721;SDS011;27407;24.142;-110.310;2024-02-26T06:48:13;8.63;;;0.97;;
41721;SDS011;27407;24.142;-110.310;2024-02-26T06:50:39;7.00;;;0.57;;
41721;SDS011;27407;24.142;-110.310;2024-02-26T06:53:07;4.37;;;1.03;;
41721;SDS011;27407;24.142;-110.310;2024-02-26T06:55:33;7.43;;;0.90;;
41721;SDS011;27407;24.142;-110.310;2024-02-26T06:58:00;16.70;;;0.97;;
41721;SDS011;27407;24.142;-110.310;2024-02-26T07:00:27;1.27;;;0.40;;
41721;SDS011;27407;24.142;-110.310;2024-02-26T07:02:53;2.30;;;0.60;;
41721;SDS011;27407;24.142;-110.310;2024-02-26T07:05:20;3.93;;;0.53;;
41721;SDS011;27407;24.142;-110.310;2024-02-26T07:07:46;5.60;;;0.70;;
41721;SDS011;27407;24.142;-110.310;2024-02-26T07:10:13;4.37;;;0.53;;
41721;SDS011;27407;24.142;-110.310;2024-02-26T07:12:39;3.53;;;0.80;;
41721;SDS011;27407;24.142;-110.310;2024-02-26T07:15:06;8.90;;;1.07;;
41721;SDS011;27407;24.142;-110.310;2024-02-26T07:17:33;4.40;;;0.80;;
41721;SDS011;27407;24.142;-110.310;2024-02-26T07:20:02;3.40;;;0.60;;
41721;SDS011;27407;24.142;-110.310;2024-02-26T07:22:32;2.97;;;0.60;;
41721;SDS011;27407;24.142;-110.310;2024-02-26T07:24:59;6.83;;;0.70;;
41721;SDS011;27407;24.142;-110.310;2024-02-26T07:27:25;1.97;;;0.50;;
41721;SDS011;27407;24.142;-110.310;2024-02-26T07:29:52;10.57;;;0.70;;
41721;SDS011;27407;24.142;-110.310;2024-02-26T07:32:18;7.93;;;0.80;;
41721;SDS011;27407;24.142;-110.310;2024-02-26T07:34:45;3.37;;;0.50;;
41721;SDS011;27407;24.142;-110.310;2024-02-26T07:37:12;12.87;;;1.10;;
41721;SDS011;27407;24.142;-110.310;2024-02-26T07:39:38;8.30;;;0.67;;
41721;SDS011;27407;24.142;-110.310;2024-02-26T07:42:05;18.43;;;1.10;;
41721;SDS011;27407;24.142;-110.310;2024-02-26T07:44:32;11.97;;;1.30;;
41721;SDS011;27407;24.142;-110.310;2024-02-26T07:46:59;6.70;;;0.70;;
41721;SDS011;27407;24.142;-110.310;2024-02-26T07:49:26;12.40;;;0.97;;
41721;SDS011;27407;24.142;-110.310;2024-02-26T07:51:52;4.57;;;0.90;;
41721;SDS011;27407;24.142;-110.310;2024-02-26T07:54:19;0.77;;;0.60;;
41721;SDS011;27407;24.142;-110.310;2024-02-26T07:56:46;7.27;;;0.90;;
41721;SDS011;27407;24.142;-110.310;2024-02-26T07:59:13;4.53;;;0.90;;
41721;SDS011;27407;24.142;-110.310;2024-02-26T08:01:40;5.40;;;0.90;;
41721;SDS011;27407;24.142;-110.310;2024-02-26T08:04:07;4.57;;;0.87;;
41721;SDS011;27407;24.142;-110.310;2024-02-26T08:06:33;4.40;;;1.63;;
41721;SDS011;27407;24.142;-110.310;2024-02-26T08:09:03;1.77;;;0.70;;
41721;SDS011;27407;24.142;-110.310;2024-02-26T08:11:29;5.57;;;0.63;;
41721;SDS011;27407;24.142;-110.310;2024-02-26T08:13:56;9.03;;;1.00;;
41721;SDS011;27407;24.142;-110.310;2024-02-26T08:16:24;87.37;;;6.40;;
41721;SDS011;27407;24.142;-110.310;2024-02-26T08:18:51;14.83;;;1.37;;
41721;SDS011;27407;24.142;-110.310;2024-02-26T08:21:18;4.37;;;0.93;;
41721;SDS011;27407;24.142;-110.310;2024-02-26T08:23:44;3.57;;;0.97;;
41721;SDS011;27407;24.142;-110.310;2024-02-26T08:26:14;6.00;;;0.60;;
41721;SDS011;27407;24.142;-110.310;2024-02-26T08:28:40;2.90;;;0.70;;
41721;SDS011;27407;24.142;-110.310;2024-02-26T08:31:07;4.20;;;0.60;;
41721;SDS011;27407;24.142;-110.310;2024-02-26T08:33:33;1.53;;;0.60;;
41721;SDS011;27407;24.142;-110.310;2024-02-26T08:36:05;5.00;;;0.70;;
41721;SDS011;27407;24.142;-110.310;2024-02-26T08:38:32;3.33;;;1.10;;
41721;SDS011;27407;24.142;-110.310;2024-02-26T08:41:00;4.33;;;0.87;;
41721;SDS011;27407;24.142;-110.310;2024-02-26T08:43:28;5.30;;;0.83;;
41721;SDS011;27407;24.142;-110.310;2024-02-26T08:45:56;2.23;;;0.50;;
41721;SDS011;27407;24.142;-110.310;2024-02-26T08:48:23;2.43;;;0.50;;
41721;SDS011;27407;24.142;-110.310;2024-02-26T08:50:50;8.17;;;0.60;;
41721;SDS011;27407;24.142;-110.310;2024-02-26T08:53:16;2.80;;;0.70;;
41721;SDS011;27407;24.142;-110.310;2024-02-26T08:55:43;7.43;;;0.73;;
41721;SDS011;27407;24.142;-110.310;2024-02-26T08:58:10;6.47;;;0.47;;
41721;SDS011;27407;24.142;-110.310;2024-02-26T09:00:36;1.93;;;0.73;;
41721;SDS011;27407;24.142;-110.310;2024-02-26T09:03:03;2.63;;;0.60;;
41721;SDS011;27407;24.142;-110.310;2024-02-26T09:05:29;7.60;;;0.70;;
41721;SDS011;27407;24.142;-110.310;2024-02-26T09:07:56;1.43;;;0.30;;
41721;SDS011;27407;24.142;-110.310;2024-02-26T09:10:23;2.10;;;0.70;;
41721;SDS011;27407;24.142;-110.310;2024-02-26T09:12:49;4.27;;;0.60;;
41721;SDS011;27407;24.142;-110.310;2024-02-26T09:15:16;3.50;;;0.80;;
41721;SDS011;27407;24.142;-110.310;2024-02-26T09:17:42;9.30;;;0.97;;
41721;SDS011;27407;24.142;-110.310;2024-02-26T09:20:10;4.63;;;0.93;;
41721;SDS011;27407;24.142;-110.310;2024-02-26T09:22:39;2.13;;;0.50;;
41721;SDS011;27407;24.142;-110.310;2024-02-26T09:25:05;2.70;;;0.80;;
41721;SDS011;27407;24.142;-110.310;2024-02-26T09:27:32;7.10;;;1.13;;
41721;SDS011;27407;24.142;-110.310;2024-02-26T09:29:59;7.50;;;1.30;;
41721;SDS011;27407;24.142;-110.310;2024-02-26T09:32:25;13.10;;;2.00;;
41721;SDS011;27407;24.142;-110.310;2024-02-26T09:34:52;10.43;;;1.20;;
41721;SDS011;27407;24.142;-110.310;2024-02-26T09:37:21;18.03;;;1.53;;
41721;SDS011;27407;24.142;-110.310;2024-02-26T09:39:48;8.13;;;1.83;;
41721;SDS011;27407;24.142;-110.310;2024-02-26T09:42:15;21.03;;;1.80;;
41721;SDS011;27407;24.142;-110.310;2024-02-26T09:44:44;24.10;;;1.97;;
41721;SDS011;27407;24.142;-110.310;2024-02-26T09:47:14;8.90;;;1.50;;
41721;SDS011;27407;24.142;-110.310;2024-02-26T09:49:48;9.10;;;1.40;;
41721;SDS011;27407;24.142;-110.310;2024-02-26T09:52:16;7.20;;;1.10;;
41721;SDS011;27407;24.142;-110.310;2024-02-26T09:54:49;13.33;;;1.50;;
41721;SDS011;27407;24.142;-110.310;2024-02-26T09:57:19;10.43;;;1.10;;
41721;SDS011;27407;24.142;-110.310;2024-02-26T09:59:49;13.53;;;1.87;;
41721;SDS011;27407;24.142;-110.310;2024-02-26T10:02:19;20.20;;;1.93;;
41721;SDS011;27407;24.142;-110.310;2024-02-26T10:04:47;19.20;;;1.73;;
41721;SDS011;27407;24.142;-110.310;2024-02-26T10:07:16;27.87;;;2.40;;
41721;SDS011;27407;24.142;-110.310;2024-02-26T10:09:43;19.60;;;2.40;;
41721;SDS011;27407;24.142;-110.310;2024-02-26T10:12:10;12.57;;;2.23;;
41721;SDS011;27407;24.142;-110.310;2024-02-26T10:14:37;10.20;;;1.37;;
41721;SDS011;27407;24.142;-110.310;2024-02-26T10:17:06;8.17;;;1.53;;
41721;SDS011;27407;24.142;-110.310;2024-02-26T10:19:36;19.80;;;1.93;;
41721;SDS011;27407;24.142;-110.310;2024-02-26T10:22:03;12.23;;;2.10;;
41721;SDS011;27407;24.142;-110.310;2024-02-26T10:24:30;36.37;;;3.70;;
41721;SDS011;27407;24.142;-110.310;2024-02-26T10:26:59;29.07;;;2.50;;
41721;SDS011;27407;24.142;-110.310;2024-02-26T10:29:27;36.60;;;4.23;;
41721;SDS011;27407;24.142;-110.310;2024-02-26T10:31:54;16.57;;;1.43;;
41721;SDS011;27407;24.142;-110.310;2024-02-26T10:34:21;8.27;;;1.17;;
41721;SDS011;27407;24.142;-110.310;2024-02-26T10:36:49;6.73;;;1.43;;
41721;SDS011;27407;24.142;-110.310;2024-02-26T10:39:16;6.57;;;1.10;;
41721;SDS011;27407;24.142;-110.310;2024-02-26T10:41:43;3.37;;;0.60;;
41721;SDS011;27407;24.142;-110.310;2024-02-26T10:44:11;12.90;;;0.90;;
41721;SDS011;27407;24.142;-110.310;2024-02-26T10:46:41;4.23;;;0.83;;
41721;SDS011;27407;24.142;-110.310;2024-02-26T10:49:14;5.73;;;0.87;;
41721;SDS011;27407;24.142;-110.310;2024-02-26T10:51:45;8.87;;;1.00;;
41721;SDS011;27407;24.142;-110.310;2024-02-26T10:54:18;11.07;;;0.93;;
41721;SDS011;27407;24.142;-110.310;2024-02-26T10:56:46;4.53;;;0.63;;
41721;SDS011;27407;24.142;-110.310;2024-02-26T10:59:16;5.97;;;0.50;;
41721;SDS011;27407;24.142;-110.310;2024-02-26T11:01:50;1.77;;;0.50;;
41721;SDS011;27407;24.142;-110.310;2024-02-26T11:04:17;7.83;;;0.67;;
41721;SDS011;27407;24.142;-110.310;2024-02-26T11:06:46;11.67;;;0.90;;
41721;SDS011;27407;24.142;-110.310;2024-02-26T11:09:13;4.07;;;0.70;;
41721;SDS011;27407;24.142;-110.310;2024-02-26T11:11:40;2.60;;;0.40;;
41721;SDS011;27407;24.142;-110.310;2024-02-26T11:14:08;4.07;;;0.90;;
41721;SDS011;27407;24.142;-110.310;2024-02-26T11:16:35;3.60;;;0.50;;
41721;SDS011;27407;24.142;-110.310;2024-02-26T11:19:03;1.23;;;0.50;;
41721;SDS011;27407;24.142;-110.310;2024-02-26T11:21:32;1.90;;;0.40;;
41721;SDS011;27407;24.142;-110.310;2024-02-26T11:24:12;4.87;;;0.80;;
41721;SDS011;27407;24.142;-110.310;2024-02-26T11:26:46;4.20;;;0.80;;
41721;SDS011;27407;24.142;-110.310;2024-02-26T11:29:21;6.20;;;0.70;;
41721;SDS011;27407;24.142;-110.310;2024-02-26T11:31:50;1.33;;;0.40;;
41721;SDS011;27407;24.142;-110.310;2024-02-26T11:34:18;6.40;;;0.80;;
41721;SDS011;27407;24.142;-110.310;2024-02-26T11:36:45;3.73;;;0.90;;
41721;SDS011;27407;24.142;-110.310;2024-02-26T11:39:12;2.40;;;0.40;;
41721;SDS011;27407;24.142;-110.310;2024-02-26T11:41:42;2.10;;;0.70;;
41721;SDS011;27407;24.142;-110.310;2024-02-26T11:44:09;0.87;;;0.50;;
41721;SDS011;27407;24.142;-110.310;2024-02-26T11:46:39;1.70;;;0.40;;
41721;SDS011;27407;24.142;-110.310;2024-02-26T11:51:54;3.23;;;0.60;;
41721;SDS011;27407;24.142;-110.310;2024-02-26T11:57:26;9.73;;;0.90;;
41721;SDS011;27407;24.142;-110.310;2024-02-26T12:00:10;7.63;;;0.90;;
41721;SDS011;27407;24.142;-110.310;2024-02-26T12:02:44;7.73;;;0.53;;
41721;SDS011;27407;24.142;-110.310;2024-02-26T12:05:23;5.30;;;0.70;;
41721;SDS011;27407;24.142;-110.310;2024-02-26T12:07:55;6.07;;;1.37;;
41721;SDS011;27407;24.142;-110.310;2024-02-26T12:10:27;9.80;;;0.93;;
41721;SDS011;27407;24.142;-110.310;2024-02-26T12:15:33;16.47;;;1.33;;
41721;SDS011;27407;24.142;-110.310;2024-02-26T12:18:06;4.40;;;0.60;;
41721;SDS011;27407;24.142;-110.310;2024-02-26T12:20:35;4.70;;;0.97;;
41721;SDS011;27407;24.142;-110.310;2024-02-26T12:23:02;6.33;;;0.60;;
41721;SDS011;27407;24.142;-110.310;2024-02-26T12:25:30;4.23;;;0.80;;
41721;SDS011;27407;24.142;-110.310;2024-02-26T12:27:58;2.93;;;0.60;;
41721;SDS011;27407;24.142;-110.310;2024-02-26T12:30:28;9.43;;;0.90;;
41721;SDS011;27407;24.142;-110.310;2024-02-26T12:32:57;2.73;;;0.73;;
41721;SDS011;27407;24.142;-110.310;2024-02-26T12:35:26;4.00;;;0.40;;
41721;SDS011;27407;24.142;-110.310;2024-02-26T12:37:53;2.57;;;0.40;;
41721;SDS011;27407;24.142;-110.310;2024-02-26T12:40:20;3.13;;;0.70;;
41721;SDS011;27407;24.142;-110.310;2024-02-26T12:42:47;3.50;;;1.03;;
41721;SDS011;27407;24.142;-110.310;2024-02-26T12:45:14;11.20;;;0.70;;
41721;SDS011;27407;24.142;-110.310;2024-02-26T12:47:45;4.47;;;0.97;;
41721;SDS011;27407;24.142;-110.310;2024-02-26T12:50:13;0.70;;;0.40;;
41721;SDS011;27407;24.142;-110.310;2024-02-26T12:52:40;2.53;;;0.60;;
41721;SDS011;27407;24.142;-110.310;2024-02-26T12:55:11;3.23;;;1.20;;
41721;SDS011;27407;24.142;-110.310;2024-02-26T12:57:44;8.80;;;0.70;;
41721;SDS011;27407;24.142;-110.310;2024-02-26T13:00:16;10.70;;;1.03;;
41721;SDS011;27407;24.142;-110.310;2024-02-26T13:02:45;16.70;;;0.83;;
41721;SDS011;27407;24.142;-110.310;2024-02-26T13:05:13;8.40;;;1.47;;
41721;SDS011;27407;24.142;-110.310;2024-02-26T13:07:40;6.13;;;0.73;;
41721;SDS011;27407;24.142;-110.310;2024-02-26T13:10:12;7.57;;;1.00;;
41721;SDS011;27407;24.142;-110.310;2024-02-26T13:12:46;9.37;;;0.90;;
41721;SDS011;27407;24.142;-110.310;2024-02-26T13:15:19;15.50;;;0.97;;
41721;SDS011;27407;24.142;-110.310;2024-02-26T13:17:47;7.73;;;0.90;;
41721;SDS011;27407;24.142;-110.310;2024-02-26T13:20:27;6.90;;;0.80;;
41721;SDS011;27407;24.142;-110.310;2024-02-26T13:23:01;8.40;;;0.97;;
41721;SDS011;27407;24.142;-110.310;2024-02-26T13:25:30;7.93;;;1.40;;
41721;SDS011;27407;24.142;-110.310;2024-02-26T13:28:09;16.50;;;1.30;;
41721;SDS011;27407;24.142;-110.310;2024-02-26T13:30:41;50.00;;;4.47;;
41721;SDS011;27407;24.142;-110.310;2024-02-26T13:33:16;7.33;;;1.00;;
41721;SDS011;27407;24.142;-110.310;2024-02-26T13:35:43;8.87;;;1.23;;
41721;SDS011;27407;24.142;-110.310;2024-02-26T13:38:10;8.13;;;1.10;;
41721;SDS011;27407;24.142;-110.310;2024-02-26T13:40:37;20.33;;;1.40;;
41721;SDS011;27407;24.142;-110.310;2024-02-26T13:43:07;5.63;;;1.17;;
41721;SDS011;27407;24.142;-110.310;2024-02-26T13:45:34;19.67;;;1.93;;
41721;SDS011;27407;24.142;-110.310;2024-02-26T13:48:04;18.27;;;1.77;;
41721;SDS011;27407;24.142;-110.310;2024-02-26T13:50:33;27.67;;;3.13;;
41721;SDS011;27407;24.142;-110.310;2024-02-26T13:52:59;35.40;;;2.47;;
41721;SDS011;27407;24.142;-110.310;2024-02-26T13:55:26;21.97;;;2.20;;
41721;SDS011;27407;24.142;-110.310;2024-02-26T13:57:57;19.83;;;2.07;;
41721;SDS011;27407;24.142;-110.310;2024-02-26T14:00:27;39.13;;;2.90;;
41721;SDS011;27407;24.142;-110.310;2024-02-26T14:03:00;52.40;;;3.17;;
41721;SDS011;27407;24.142;-110.310;2024-02-26T14:05:27;34.50;;;3.13;;
41721;SDS011;27407;24.142;-110.310;2024-02-26T14:07:54;43.20;;;3.03;;
41721;SDS011;27407;24.142;-110.310;2024-02-26T14:10:21;36.37;;;3.70;;
41721;SDS011;27407;24.142;-110.310;2024-02-26T14:12:51;40.87;;;3.47;;
41721;SDS011;27407;24.142;-110.310;2024-02-26T14:15:17;24.93;;;2.60;;
41721;SDS011;27407;24.142;-110.310;2024-02-26T14:17:44;31.10;;;2.40;;
41721;SDS011;27407;24.142;-110.310;2024-02-26T14:20:11;36.43;;;2.97;;